createdAt,value
2018-08-28T00:00:05.152Z,0.00
2018-08-28T00:01:05.184Z,0.00
2018-08-28T00:02:05.214Z,0.00
2018-08-28T00:03:05.249Z,0.00
2018-08-28T00:04:05.285Z,0.00
2018-08-28T00:05:05.318Z,0.00
2018-08-28T00:06:05.352Z,0.00
2018-08-28T00:07:05.385Z,0.00
2018-08-28T00:08:05.418Z,0.00
2018-08-28T00:09:05.452Z,0.00
2018-08-28T00:10:05.483Z,0.00
2018-08-28T00:11:05.520Z,0.00
2018-08-28T00:12:05.552Z,0.00
2018-08-28T00:13:05.587Z,0.00
2018-08-28T00:14:05.620Z,0.00
2018-08-28T00:15:05.653Z,0.00
2018-08-28T00:16:05.685Z,0.00
2018-08-28T00:17:05.812Z,0.00
2018-08-28T00:18:05.752Z,0.00
2018-08-28T00:19:05.786Z,0.00
2018-08-28T00:20:05.821Z,0.00
2018-08-28T00:21:05.856Z,0.00
2018-08-28T00:22:05.886Z,0.00
2018-08-28T00:23:05.921Z,0.00
2018-08-28T00:24:05.954Z,0.00
2018-08-28T00:25:05.988Z,0.00
2018-08-28T00:26:06.021Z,0.00
2018-08-28T00:27:06.055Z,0.00
2018-08-28T00:28:06.089Z,0.00
2018-08-28T00:29:06.122Z,0.00
2018-08-28T00:30:06.155Z,0.00
2018-08-28T00:31:06.188Z,0.00
2018-08-28T00:32:06.226Z,0.00
2018-08-28T00:33:06.255Z,0.00
2018-08-28T00:34:06.288Z,0.00
2018-08-28T00:35:06.322Z,0.00
2018-08-28T00:36:06.355Z,0.00
2018-08-28T00:37:06.391Z,0.00
2018-08-28T00:38:06.424Z,0.00
2018-08-28T00:39:06.455Z,0.00
2018-08-28T00:40:06.491Z,0.00
2018-08-28T00:41:06.526Z,0.00
2018-08-28T00:42:06.557Z,0.00
2018-08-28T00:43:06.590Z,0.00
2018-08-28T00:44:06.622Z,0.00
2018-08-28T00:45:06.658Z,0.00
2018-08-28T00:46:06.694Z,0.00
2018-08-28T00:47:06.723Z,0.00
2018-08-28T00:48:06.758Z,0.00
2018-08-28T00:49:06.789Z,0.00
2018-08-28T00:50:06.827Z,0.00
2018-08-28T00:51:06.860Z,0.00
2018-08-28T00:52:06.891Z,0.00
2018-08-28T00:53:06.926Z,0.00
2018-08-28T00:54:06.957Z,0.00
2018-08-28T00:55:06.994Z,0.00
2018-08-28T00:56:07.024Z,0.00
2018-08-28T00:57:07.057Z,0.00
2018-08-28T00:58:07.091Z,0.00
2018-08-28T00:59:07.124Z,0.00
2018-08-28T01:00:07.157Z,0.00
2018-08-28T01:01:07.196Z,0.00
2018-08-28T01:02:07.228Z,0.00
2018-08-28T01:03:07.256Z,0.00
2018-08-28T01:04:07.292Z,0.00
2018-08-28T01:05:07.324Z,0.00
2018-08-28T01:06:07.357Z,0.00
2018-08-28T01:07:07.392Z,0.00
2018-08-28T01:08:07.424Z,0.00
2018-08-28T01:09:07.462Z,0.00
2018-08-28T01:10:07.491Z,0.00
2018-08-28T01:11:07.525Z,0.00
2018-08-28T01:12:07.560Z,0.00
2018-08-28T01:13:07.594Z,0.00
2018-08-28T01:14:07.628Z,0.00
2018-08-28T01:15:07.659Z,0.00
2018-08-28T01:16:07.691Z,0.00
2018-08-28T01:17:07.725Z,0.00
2018-08-28T01:18:07.759Z,0.00
2018-08-28T01:19:07.792Z,0.00
2018-08-28T01:20:07.825Z,0.00
2018-08-28T01:21:07.859Z,0.00
2018-08-28T01:22:07.891Z,0.00
2018-08-28T01:23:07.925Z,0.00
2018-08-28T01:24:07.961Z,0.00
2018-08-28T01:25:07.994Z,0.00
2018-08-28T01:26:08.024Z,0.00
2018-08-28T01:27:08.057Z,0.00
2018-08-28T01:28:08.091Z,0.00
2018-08-28T01:29:08.125Z,0.00
2018-08-28T01:30:08.158Z,0.00
2018-08-28T01:31:08.191Z,0.00
2018-08-28T01:32:08.227Z,0.00
2018-08-28T01:33:08.260Z,0.00
2018-08-28T01:34:08.291Z,0.00
2018-08-28T01:35:08.324Z,0.00
2018-08-28T01:36:08.359Z,0.00
2018-08-28T01:37:08.449Z,0.00
2018-08-28T01:38:08.423Z,0.00
2018-08-28T01:39:08.459Z,0.00
2018-08-28T01:40:08.492Z,0.00
2018-08-28T01:41:08.525Z,0.00
2018-08-28T01:42:08.558Z,0.00
2018-08-28T01:43:08.591Z,0.00
2018-08-28T01:44:08.624Z,0.00
2018-08-28T01:45:08.659Z,0.00
2018-08-28T01:46:08.690Z,0.00
2018-08-28T01:47:08.724Z,0.00
2018-08-28T01:48:08.758Z,0.00
2018-08-28T01:49:08.789Z,0.00
2018-08-28T01:50:08.823Z,0.00
2018-08-28T01:51:08.865Z,0.00
2018-08-28T01:52:08.891Z,0.00
2018-08-28T01:53:08.925Z,0.00
2018-08-28T01:54:08.955Z,0.00
2018-08-28T01:55:08.989Z,0.00
2018-08-28T01:56:09.023Z,0.00
2018-08-28T01:57:09.058Z,0.00
2018-08-28T01:58:09.089Z,0.00
2018-08-28T01:59:09.123Z,0.00
2018-08-28T02:00:09.156Z,0.00
2018-08-28T02:01:09.190Z,0.00
2018-08-28T02:02:09.223Z,0.00
2018-08-28T02:03:09.259Z,0.00
2018-08-28T02:04:09.290Z,0.00
2018-08-28T02:05:09.323Z,0.00
2018-08-28T02:06:09.355Z,0.00
2018-08-28T02:07:09.388Z,0.00
2018-08-28T02:08:09.422Z,0.00
2018-08-28T02:09:09.455Z,0.00
2018-08-28T02:10:09.487Z,0.00
2018-08-28T02:11:09.520Z,0.00
2018-08-28T02:12:09.556Z,0.00
2018-08-28T02:13:09.603Z,0.00
2018-08-28T02:14:09.621Z,0.00
2018-08-28T02:15:09.655Z,0.00
2018-08-28T02:16:09.687Z,0.00
2018-08-28T02:17:09.725Z,0.00
2018-08-28T02:18:09.753Z,0.00
2018-08-28T02:19:09.787Z,0.00
2018-08-28T02:20:09.822Z,0.00
2018-08-28T02:21:09.855Z,0.00
2018-08-28T02:22:09.887Z,0.00
2018-08-28T02:23:09.919Z,0.00
2018-08-28T02:24:09.954Z,0.00
2018-08-28T02:25:09.985Z,0.00
2018-08-28T02:26:10.020Z,0.00
2018-08-28T02:27:10.052Z,0.00
2018-08-28T02:28:10.091Z,0.00
2018-08-28T02:29:10.140Z,0.00
2018-08-28T02:30:10.152Z,0.00
2018-08-28T02:31:10.189Z,0.00
2018-08-28T02:32:10.224Z,0.00
2018-08-28T02:33:10.253Z,0.00
2018-08-28T02:34:10.285Z,0.00
2018-08-28T02:35:10.322Z,0.00
2018-08-28T02:36:10.356Z,0.00
2018-08-28T02:37:10.387Z,0.00
2018-08-28T02:38:10.429Z,0.00
2018-08-28T02:39:10.452Z,0.00
2018-08-28T02:40:10.486Z,0.00
2018-08-28T02:41:10.519Z,0.00
2018-08-28T02:42:10.559Z,0.00
2018-08-28T02:43:10.584Z,0.00
2018-08-28T02:44:10.617Z,0.00
2018-08-28T02:45:10.651Z,0.00
2018-08-28T02:46:10.684Z,0.00
2018-08-28T02:47:10.717Z,0.00
2018-08-28T02:48:10.752Z,0.00
2018-08-28T02:49:10.786Z,0.00
2018-08-28T02:50:10.816Z,0.00
2018-08-28T02:51:10.850Z,0.00
2018-08-28T02:52:10.883Z,0.00
2018-08-28T02:53:10.918Z,0.00
2018-08-28T02:54:10.950Z,0.00
2018-08-28T02:55:10.981Z,0.00
2018-08-28T02:56:11.051Z,0.00
2018-08-28T02:57:11.049Z,0.00
2018-08-28T02:58:11.083Z,0.00
2018-08-28T02:59:11.115Z,0.00
2018-08-28T03:00:11.149Z,0.00
2018-08-28T03:01:11.180Z,0.00
2018-08-28T03:02:11.213Z,0.00
2018-08-28T03:03:11.261Z,0.00
2018-08-28T03:04:11.482Z,0.00
2018-08-28T03:05:11.315Z,0.00
2018-08-28T03:06:11.347Z,0.00
2018-08-28T03:07:11.378Z,0.00
2018-08-28T03:08:11.413Z,0.00
2018-08-28T03:09:11.446Z,0.00
2018-08-28T03:10:11.478Z,0.00
2018-08-28T03:11:11.572Z,0.00
2018-08-28T03:12:11.546Z,0.00
2018-08-28T03:13:11.587Z,0.00
2018-08-28T03:14:11.611Z,0.00
2018-08-28T03:15:11.643Z,0.00
2018-08-28T03:16:11.679Z,0.00
2018-08-28T03:17:11.711Z,0.00
2018-08-28T03:18:11.744Z,0.00
2018-08-28T03:19:11.776Z,0.00
2018-08-28T03:20:11.813Z,0.00
2018-08-28T03:21:11.842Z,0.00
2018-08-28T03:22:11.881Z,0.00
2018-08-28T03:23:11.908Z,0.00
2018-08-28T03:24:11.940Z,0.00
2018-08-28T03:25:11.974Z,0.00
2018-08-28T03:26:12.007Z,0.00
2018-08-28T03:27:12.040Z,0.00
2018-08-28T03:28:12.073Z,0.00
2018-08-28T03:29:12.193Z,0.00
2018-08-28T03:30:12.140Z,0.00
2018-08-28T03:31:12.172Z,0.00
2018-08-28T03:32:12.206Z,0.00
2018-08-28T03:33:12.241Z,0.00
2018-08-28T03:34:12.270Z,0.00
2018-08-28T03:35:12.327Z,0.00
2018-08-28T03:36:12.337Z,0.00
2018-08-28T03:37:12.374Z,0.00
2018-08-28T03:38:12.402Z,0.00
2018-08-28T03:39:12.435Z,0.00
2018-08-28T03:40:12.472Z,0.00
2018-08-28T03:41:12.501Z,0.00
2018-08-28T03:42:12.740Z,0.00
2018-08-28T03:43:12.567Z,0.00
2018-08-28T03:44:12.600Z,0.00
2018-08-28T03:45:12.637Z,0.00
2018-08-28T03:46:12.666Z,0.00
2018-08-28T03:47:12.699Z,0.00
2018-08-28T03:48:12.733Z,0.00
2018-08-28T03:49:12.766Z,0.00
2018-08-28T03:50:12.798Z,0.00
2018-08-28T03:51:12.831Z,0.00
2018-08-28T03:52:12.864Z,0.00
2018-08-28T03:53:12.902Z,0.00
2018-08-28T03:54:12.929Z,0.00
2018-08-28T03:55:12.962Z,0.00
2018-08-28T03:56:12.996Z,0.00
2018-08-28T03:57:13.029Z,0.00
2018-08-28T03:58:13.061Z,0.00
2018-08-28T03:59:13.096Z,0.00
2018-08-28T04:00:13.129Z,0.00
2018-08-28T04:01:13.160Z,0.00
2018-08-28T04:02:13.193Z,0.00
2018-08-28T04:03:13.226Z,0.00
2018-08-28T04:04:13.259Z,0.00
2018-08-28T04:05:13.294Z,0.00
2018-08-28T04:06:13.324Z,0.00
2018-08-28T04:07:13.357Z,0.00
2018-08-28T04:08:13.390Z,0.00
2018-08-28T04:09:13.425Z,0.00
2018-08-28T04:10:13.455Z,0.00
2018-08-28T04:11:13.489Z,0.00
2018-08-28T04:12:13.527Z,0.00
2018-08-28T04:13:13.556Z,0.00
2018-08-28T04:14:13.593Z,0.00
2018-08-28T04:15:13.620Z,0.00
2018-08-28T04:16:13.656Z,0.00
2018-08-28T04:17:13.768Z,0.00
2018-08-28T04:18:13.717Z,0.00
2018-08-28T04:19:13.752Z,0.00
2018-08-28T04:20:13.786Z,0.00
2018-08-28T04:21:13.818Z,0.00
2018-08-28T04:22:13.856Z,0.00
2018-08-28T04:23:13.883Z,0.00
2018-08-28T04:24:13.915Z,0.00
2018-08-28T04:25:13.949Z,0.00
2018-08-28T04:26:13.981Z,0.00
2018-08-28T04:27:14.013Z,0.00
2018-08-28T04:28:14.047Z,0.00
2018-08-28T04:29:14.080Z,0.00
2018-08-28T04:30:14.111Z,0.00
2018-08-28T04:31:14.144Z,0.00
2018-08-28T04:32:14.178Z,0.00
2018-08-28T04:33:14.210Z,0.00
2018-08-28T04:34:14.244Z,0.00
2018-08-28T04:35:14.275Z,0.00
2018-08-28T04:36:14.310Z,0.00
2018-08-28T04:37:14.340Z,0.00
2018-08-28T04:38:14.372Z,0.00
2018-08-28T04:39:14.405Z,5.63
2018-08-28T04:40:14.438Z,5.63
2018-08-28T04:41:14.473Z,5.63
2018-08-28T04:42:14.502Z,5.63
2018-08-28T04:43:14.535Z,5.63
2018-08-28T04:44:14.569Z,5.63
2018-08-28T04:45:14.601Z,5.63
2018-08-28T04:46:14.633Z,11.25
2018-08-28T04:47:14.667Z,11.25
2018-08-28T04:48:14.699Z,11.25
2018-08-28T04:49:14.731Z,11.25
2018-08-28T04:50:14.764Z,11.25
2018-08-28T04:51:14.797Z,16.88
2018-08-28T04:52:14.829Z,16.88
2018-08-28T04:53:14.863Z,16.88
2018-08-28T04:54:14.937Z,22.50
2018-08-28T04:55:14.928Z,22.50
2018-08-28T04:56:14.962Z,22.50
2018-08-28T04:57:14.994Z,28.13
2018-08-28T04:58:15.026Z,28.13
2018-08-28T04:59:15.059Z,28.13
2018-08-28T05:00:15.091Z,33.75
2018-08-28T05:01:15.124Z,33.75
2018-08-28T05:02:15.157Z,33.75
2018-08-28T05:03:15.190Z,39.38
2018-08-28T05:04:15.221Z,39.38
2018-08-28T05:05:15.255Z,39.38
2018-08-28T05:06:15.286Z,45.00
2018-08-28T05:07:15.320Z,45.00
2018-08-28T05:08:15.353Z,45.00
2018-08-28T05:09:15.385Z,50.63
2018-08-28T05:10:15.416Z,50.63
2018-08-28T05:11:15.450Z,50.63
2018-08-28T05:12:15.483Z,56.25
2018-08-28T05:13:15.516Z,56.25
2018-08-28T05:14:15.549Z,56.25
2018-08-28T05:15:15.582Z,61.88
2018-08-28T05:16:15.614Z,61.88
2018-08-28T05:17:15.647Z,61.88
2018-08-28T05:18:15.680Z,67.50
2018-08-28T05:19:15.763Z,61.88
2018-08-28T05:20:15.746Z,61.88
2018-08-28T05:21:15.778Z,67.50
2018-08-28T05:22:15.811Z,67.50
2018-08-28T05:23:15.845Z,67.50
2018-08-28T05:24:15.877Z,73.13
2018-08-28T05:25:15.910Z,73.13
2018-08-28T05:26:15.942Z,73.13
2018-08-28T05:27:15.976Z,73.13
2018-08-28T05:28:16.010Z,78.75
2018-08-28T05:29:16.042Z,78.75
2018-08-28T05:30:16.076Z,84.38
2018-08-28T05:31:16.108Z,78.75
2018-08-28T05:32:16.140Z,78.75
2018-08-28T05:33:16.173Z,78.75
2018-08-28T05:34:16.205Z,78.75
2018-08-28T05:35:16.239Z,78.75
2018-08-28T05:36:16.272Z,84.38
2018-08-28T05:37:16.304Z,84.38
2018-08-28T05:38:16.353Z,84.38
2018-08-28T05:39:16.371Z,84.38
2018-08-28T05:40:16.404Z,78.75
2018-08-28T05:41:16.440Z,78.75
2018-08-28T05:42:16.470Z,78.75
2018-08-28T05:43:16.504Z,78.75
2018-08-28T05:44:16.538Z,78.75
2018-08-28T05:45:16.571Z,78.75
2018-08-28T05:46:16.604Z,78.75
2018-08-28T05:47:16.636Z,78.75
2018-08-28T05:48:16.670Z,84.38
2018-08-28T05:49:16.704Z,84.38
2018-08-28T05:50:16.736Z,90.00
2018-08-28T05:51:16.769Z,90.00
2018-08-28T05:52:16.804Z,95.63
2018-08-28T05:53:16.836Z,101.25
2018-08-28T05:54:16.870Z,106.88
2018-08-28T05:55:16.904Z,106.88
2018-08-28T05:56:17.005Z,106.88
2018-08-28T05:57:16.970Z,106.88
2018-08-28T05:58:17.003Z,106.88
2018-08-28T05:59:17.037Z,112.50
2018-08-28T06:00:17.071Z,112.50
2018-08-28T06:01:17.108Z,118.13
2018-08-28T06:02:17.141Z,118.13
2018-08-28T06:03:17.230Z,118.13
2018-08-28T06:04:17.205Z,118.13
2018-08-28T06:05:17.239Z,123.75
2018-08-28T06:06:17.271Z,123.75
2018-08-28T06:07:17.305Z,123.75
2018-08-28T06:08:17.342Z,129.38
2018-08-28T06:09:17.373Z,135.00
2018-08-28T06:10:17.406Z,140.63
2018-08-28T06:11:17.447Z,140.63
2018-08-28T06:12:17.520Z,140.63
2018-08-28T06:13:17.508Z,140.63
2018-08-28T06:14:17.541Z,146.25
2018-08-28T06:15:17.580Z,146.25
2018-08-28T06:16:17.609Z,146.25
2018-08-28T06:17:17.643Z,151.88
2018-08-28T06:18:17.677Z,151.88
2018-08-28T06:19:17.710Z,151.88
2018-08-28T06:20:17.747Z,157.50
2018-08-28T06:21:17.779Z,157.50
2018-08-28T06:22:17.811Z,157.50
2018-08-28T06:23:17.847Z,163.13
2018-08-28T06:24:17.881Z,163.13
2018-08-28T06:25:17.915Z,168.75
2018-08-28T06:26:17.969Z,168.75
2018-08-28T06:27:17.982Z,168.75
2018-08-28T06:28:18.016Z,174.38
2018-08-28T06:29:18.050Z,174.38
2018-08-28T06:30:18.085Z,174.38
2018-08-28T06:31:18.119Z,174.38
2018-08-28T06:32:18.153Z,174.38
2018-08-28T06:33:18.186Z,180.00
2018-08-28T06:34:18.222Z,180.00
2018-08-28T06:35:18.256Z,185.63
2018-08-28T06:36:18.290Z,191.25
2018-08-28T06:37:18.381Z,196.88
2018-08-28T06:38:18.359Z,191.25
2018-08-28T06:39:18.396Z,191.25
2018-08-28T06:40:18.428Z,196.88
2018-08-28T06:41:18.464Z,202.50
2018-08-28T06:42:18.498Z,208.13
2018-08-28T06:43:18.532Z,208.13
2018-08-28T06:44:18.567Z,213.75
2018-08-28T06:45:18.601Z,219.38
2018-08-28T06:46:18.642Z,225.00
2018-08-28T06:47:18.672Z,230.63
2018-08-28T06:48:18.706Z,236.25
2018-08-28T06:49:18.742Z,236.25
2018-08-28T06:50:18.776Z,236.25
2018-08-28T06:51:18.811Z,236.25
2018-08-28T06:52:18.851Z,241.88
2018-08-28T06:53:18.882Z,247.50
2018-08-28T06:54:18.916Z,253.13
2018-08-28T06:55:18.952Z,253.13
2018-08-28T06:56:18.986Z,258.75
2018-08-28T06:57:19.023Z,253.13
2018-08-28T06:58:19.058Z,258.75
2018-08-28T06:59:19.094Z,258.75
2018-08-28T07:00:19.130Z,264.38
2018-08-28T07:01:19.165Z,264.38
2018-08-28T07:02:19.211Z,264.38
2018-08-28T07:03:19.237Z,264.38
2018-08-28T07:04:19.273Z,275.63
2018-08-28T07:05:19.308Z,275.63
2018-08-28T07:06:19.342Z,270.00
2018-08-28T07:07:19.383Z,275.63
2018-08-28T07:08:19.416Z,270.00
2018-08-28T07:09:19.452Z,275.63
2018-08-28T07:10:19.572Z,264.38
2018-08-28T07:11:19.524Z,264.38
2018-08-28T07:12:19.562Z,270.00
2018-08-28T07:13:19.599Z,270.00
2018-08-28T07:14:19.633Z,270.00
2018-08-28T07:15:19.668Z,270.00
2018-08-28T07:16:19.705Z,270.00
2018-08-28T07:17:19.742Z,270.00
2018-08-28T07:18:19.777Z,275.63
2018-08-28T07:19:19.817Z,275.63
2018-08-28T07:20:19.850Z,275.63
2018-08-28T07:21:19.887Z,281.25
2018-08-28T07:22:19.923Z,281.25
2018-08-28T07:23:19.959Z,286.88
2018-08-28T07:24:19.996Z,286.88
2018-08-28T07:25:20.035Z,292.50
2018-08-28T07:26:20.069Z,298.13
2018-08-28T07:27:20.106Z,298.13
2018-08-28T07:28:20.142Z,298.13
2018-08-28T07:29:20.183Z,303.75
2018-08-28T07:30:20.216Z,303.75
2018-08-28T07:31:20.269Z,303.75
2018-08-28T07:32:20.290Z,309.38
2018-08-28T07:33:20.327Z,320.63
2018-08-28T07:34:20.363Z,315.00
2018-08-28T07:35:20.399Z,315.00
2018-08-28T07:36:20.437Z,320.63
2018-08-28T07:37:20.514Z,320.63
2018-08-28T07:38:20.511Z,320.63
2018-08-28T07:39:20.548Z,326.25
2018-08-28T07:40:20.585Z,326.25
2018-08-28T07:41:20.626Z,331.88
2018-08-28T07:42:20.659Z,331.88
2018-08-28T07:43:20.698Z,337.50
2018-08-28T07:44:20.742Z,337.50
2018-08-28T07:45:20.771Z,343.13
2018-08-28T07:46:20.808Z,343.13
2018-08-28T07:47:20.846Z,348.75
2018-08-28T07:48:20.913Z,354.38
2018-08-28T07:49:20.923Z,354.38
2018-08-28T07:50:20.957Z,360.00
2018-08-28T07:51:20.997Z,365.63
2018-08-28T07:52:21.035Z,371.25
2018-08-28T07:53:21.072Z,371.25
2018-08-28T07:54:21.108Z,376.88
2018-08-28T07:55:21.147Z,382.50
2018-08-28T07:56:21.192Z,382.50
2018-08-28T07:57:21.223Z,393.75
2018-08-28T07:58:21.260Z,405.00
2018-08-28T07:59:21.298Z,410.63
2018-08-28T08:00:21.337Z,416.25
2018-08-28T08:01:21.422Z,416.25
2018-08-28T08:02:21.412Z,416.25
2018-08-28T08:03:21.452Z,421.88
2018-08-28T08:04:21.488Z,427.50
2018-08-28T08:05:21.527Z,433.13
2018-08-28T08:06:21.567Z,433.13
2018-08-28T08:07:21.604Z,427.50
2018-08-28T08:08:21.643Z,416.25
2018-08-28T08:09:21.682Z,388.13
2018-08-28T08:10:21.726Z,393.75
2018-08-28T08:11:21.760Z,410.63
2018-08-28T08:12:21.798Z,410.63
2018-08-28T08:13:21.836Z,421.88
2018-08-28T08:14:21.874Z,427.50
2018-08-28T08:15:21.915Z,427.50
2018-08-28T08:16:21.954Z,433.13
2018-08-28T08:17:21.992Z,438.75
2018-08-28T08:18:22.033Z,438.75
2018-08-28T08:19:22.070Z,444.38
2018-08-28T08:20:22.108Z,444.38
2018-08-28T08:21:22.149Z,450.00
2018-08-28T08:22:22.192Z,455.63
2018-08-28T08:23:22.227Z,461.25
2018-08-28T08:24:22.271Z,466.88
2018-08-28T08:25:22.306Z,472.50
2018-08-28T08:26:22.346Z,478.13
2018-08-28T08:27:22.383Z,478.13
2018-08-28T08:28:22.502Z,483.75
2018-08-28T08:29:22.464Z,489.38
2018-08-28T08:30:22.503Z,489.38
2018-08-28T08:31:22.541Z,489.38
2018-08-28T08:32:22.581Z,495.00
2018-08-28T08:33:22.622Z,489.38
2018-08-28T08:34:22.658Z,472.50
2018-08-28T08:35:22.840Z,489.38
2018-08-28T08:36:22.740Z,489.38
2018-08-28T08:37:22.779Z,495.00
2018-08-28T08:38:22.818Z,500.63
2018-08-28T08:39:22.858Z,500.63
2018-08-28T08:40:22.898Z,495.00
2018-08-28T08:41:22.938Z,489.38
2018-08-28T08:42:22.977Z,506.25
2018-08-28T08:43:23.020Z,506.25
2018-08-28T08:44:23.064Z,511.88
2018-08-28T08:45:23.100Z,511.88
2018-08-28T08:46:23.135Z,511.88
2018-08-28T08:47:23.177Z,506.25
2018-08-28T08:48:23.223Z,506.25
2018-08-28T08:49:23.258Z,506.25
2018-08-28T08:50:23.297Z,500.63
2018-08-28T08:51:23.337Z,500.63
2018-08-28T08:52:23.379Z,511.88
2018-08-28T08:53:23.420Z,523.13
2018-08-28T08:54:23.459Z,528.75
2018-08-28T08:55:23.497Z,534.38
2018-08-28T08:56:23.541Z,534.38
2018-08-28T08:57:23.593Z,540.00
2018-08-28T08:58:23.620Z,545.63
2018-08-28T08:59:23.662Z,534.38
2018-08-28T09:00:23.700Z,534.38
2018-08-28T09:01:23.742Z,534.38
2018-08-28T09:02:23.782Z,523.13
2018-08-28T09:03:23.823Z,540.00
2018-08-28T09:04:23.864Z,540.00
2018-08-28T09:05:23.904Z,540.00
2018-08-28T09:06:23.943Z,551.25
2018-08-28T09:07:23.985Z,545.63
2018-08-28T09:08:24.027Z,562.50
2018-08-28T09:09:24.067Z,568.13
2018-08-28T09:10:24.110Z,573.75
2018-08-28T09:11:24.148Z,579.38
2018-08-28T09:12:24.189Z,573.75
2018-08-28T09:13:24.291Z,579.38
2018-08-28T09:14:24.270Z,579.38
2018-08-28T09:15:24.311Z,579.38
2018-08-28T09:16:24.352Z,585.00
2018-08-28T09:17:24.395Z,585.00
2018-08-28T09:18:24.435Z,590.63
2018-08-28T09:19:24.516Z,596.25
2018-08-28T09:20:24.518Z,590.63
2018-08-28T09:21:24.559Z,601.88
2018-08-28T09:22:24.599Z,596.25
2018-08-28T09:23:24.641Z,601.88
2018-08-28T09:24:24.682Z,601.88
2018-08-28T09:25:24.723Z,607.50
2018-08-28T09:26:24.764Z,607.50
2018-08-28T09:27:24.806Z,613.13
2018-08-28T09:28:24.846Z,630.00
2018-08-28T09:29:24.889Z,753.75
2018-08-28T09:30:24.930Z,1153.13
2018-08-28T09:31:25.040Z,1575.00
2018-08-28T09:32:25.119Z,1693.13
2018-08-28T09:33:25.056Z,1693.13
2018-08-28T09:34:25.096Z,1710.00
2018-08-28T09:35:25.140Z,1726.88
2018-08-28T09:36:25.188Z,1676.25
2018-08-28T09:37:25.227Z,1721.25
2018-08-28T09:38:25.294Z,1828.13
2018-08-28T09:39:25.314Z,1828.13
2018-08-28T09:40:25.358Z,1867.50
2018-08-28T09:41:25.406Z,1845.00
2018-08-28T09:42:25.447Z,1816.88
2018-08-28T09:43:25.491Z,1884.38
2018-08-28T09:44:25.538Z,1867.50
2018-08-28T09:45:25.583Z,1828.13
2018-08-28T09:46:25.628Z,1800.00
2018-08-28T09:47:25.675Z,1732.50
2018-08-28T09:48:25.795Z,1766.25
2018-08-28T09:49:25.769Z,1895.63
2018-08-28T09:50:25.990Z,1957.50
2018-08-28T09:51:25.861Z,1980.00
2018-08-28T09:52:25.909Z,2036.25
2018-08-28T09:53:25.955Z,2002.50
2018-08-28T09:54:26.003Z,1991.25
2018-08-28T09:55:26.054Z,1996.88
2018-08-28T09:56:26.123Z,2019.38
2018-08-28T09:57:26.147Z,1980.00
2018-08-28T09:58:26.195Z,1951.88
2018-08-28T09:59:26.243Z,2030.63
2018-08-28T10:00:26.292Z,2047.50
2018-08-28T10:01:26.341Z,2053.13
2018-08-28T10:02:26.388Z,1935.00
2018-08-28T10:03:26.437Z,2002.50
2018-08-28T10:04:26.493Z,2126.25
2018-08-28T10:05:26.540Z,2098.13
2018-08-28T10:06:26.584Z,2030.63
2018-08-28T10:07:26.633Z,1861.88
2018-08-28T10:08:26.683Z,1963.13
2018-08-28T10:09:26.736Z,2075.63
2018-08-28T10:10:26.780Z,2131.88
2018-08-28T10:11:26.842Z,2131.88
2018-08-28T10:12:26.881Z,2171.25
2018-08-28T10:13:26.932Z,2182.50
2018-08-28T10:14:26.979Z,2126.25
2018-08-28T10:15:27.033Z,2143.13
2018-08-28T10:16:27.080Z,2086.88
2018-08-28T10:17:27.253Z,2176.88
2018-08-28T10:18:27.179Z,2098.13
2018-08-28T10:19:27.230Z,2002.50
2018-08-28T10:20:27.280Z,2075.63
2018-08-28T10:21:27.332Z,2205.00
2018-08-28T10:22:27.381Z,2317.50
2018-08-28T10:23:27.432Z,2278.13
2018-08-28T10:24:27.484Z,2255.63
2018-08-28T10:25:27.534Z,2289.38
2018-08-28T10:26:27.584Z,2368.13
2018-08-28T10:27:27.637Z,2311.88
2018-08-28T10:28:27.686Z,2317.50
2018-08-28T10:29:27.736Z,2289.38
2018-08-28T10:30:27.877Z,2289.38
2018-08-28T10:31:27.837Z,2295.00
2018-08-28T10:32:27.890Z,2221.88
2018-08-28T10:33:27.942Z,2221.88
2018-08-28T10:34:27.991Z,2283.75
2018-08-28T10:35:28.042Z,2306.25
2018-08-28T10:36:28.096Z,2311.88
2018-08-28T10:37:28.146Z,2311.88
2018-08-28T10:38:28.199Z,2373.75
2018-08-28T10:40:35.878Z,2323.13
2018-08-28T10:41:35.930Z,2368.13
2018-08-28T10:42:35.980Z,2407.50
2018-08-28T10:43:36.032Z,2452.50
2018-08-28T10:44:36.088Z,2424.38
2018-08-28T10:45:36.161Z,2340.00
2018-08-28T10:46:36.791Z,2373.75
2018-08-28T10:47:36.237Z,2306.25
2018-08-28T10:48:36.289Z,2373.75
2018-08-28T10:49:36.342Z,2452.50
2018-08-28T10:50:36.393Z,2435.63
2018-08-28T10:51:36.442Z,2401.88
2018-08-28T10:52:36.495Z,2469.38
2018-08-28T10:53:36.547Z,2559.38
2018-08-28T10:54:36.599Z,2446.88
2018-08-28T10:55:36.650Z,2430.00
2018-08-28T10:56:36.701Z,2486.25
2018-08-28T10:57:36.755Z,2553.75
2018-08-28T10:58:36.863Z,2542.50
2018-08-28T10:59:36.860Z,2514.38
2018-08-28T11:00:36.914Z,2486.25
2018-08-28T11:01:36.963Z,2396.25
2018-08-28T11:02:37.016Z,2480.63
2018-08-28T11:03:37.068Z,2475.00
2018-08-28T11:04:37.172Z,2491.88
2018-08-28T11:05:37.172Z,2413.13
2018-08-28T11:06:37.226Z,2390.63
2018-08-28T11:07:37.279Z,2463.75
2018-08-28T11:08:37.374Z,2458.13
2018-08-28T11:09:37.386Z,2475.00
2018-08-28T11:10:37.437Z,2531.25
2018-08-28T11:11:37.494Z,2576.25
2018-08-28T11:12:37.544Z,2587.50
2018-08-28T11:13:37.597Z,2441.25
2018-08-28T11:14:37.649Z,2413.13
2018-08-28T11:15:37.701Z,2531.25
2018-08-28T11:16:37.754Z,2497.50
2018-08-28T11:17:37.808Z,2469.38
2018-08-28T11:18:37.861Z,2497.50
2018-08-28T11:19:37.914Z,2565.00
2018-08-28T11:20:37.971Z,2598.75
2018-08-28T11:21:38.021Z,2598.75
2018-08-28T11:22:38.074Z,2615.63
2018-08-28T11:23:38.144Z,2553.75
2018-08-28T11:24:38.181Z,2559.38
2018-08-28T11:25:38.236Z,2576.25
2018-08-28T11:26:38.288Z,2615.63
2018-08-28T11:27:38.340Z,2660.63
2018-08-28T11:28:38.392Z,2632.50
2018-08-28T11:29:38.448Z,2593.13
2018-08-28T11:30:38.499Z,2553.75
2018-08-28T11:31:38.551Z,2638.13
2018-08-28T11:32:38.606Z,2576.25
2018-08-28T11:33:38.657Z,2559.38
2018-08-28T11:34:38.711Z,2565.00
2018-08-28T11:35:38.788Z,2610.00
2018-08-28T11:36:38.817Z,2565.00
2018-08-28T11:37:38.869Z,2598.75
2018-08-28T11:38:38.924Z,2649.38
2018-08-28T11:39:38.975Z,2593.13
2018-08-28T11:40:39.029Z,2536.88
2018-08-28T11:41:39.082Z,2497.50
2018-08-28T11:42:39.136Z,2553.75
2018-08-28T11:43:39.190Z,2626.88
2018-08-28T11:44:39.257Z,2638.13
2018-08-28T11:45:39.295Z,2604.38
2018-08-28T11:46:39.347Z,2610.00
2018-08-28T11:47:39.399Z,2475.00
2018-08-28T11:48:39.453Z,2362.50
2018-08-28T11:49:39.507Z,2328.75
2018-08-28T11:50:39.560Z,2283.75
2018-08-28T11:51:39.613Z,2244.38
2018-08-28T11:52:39.720Z,2266.88
2018-08-28T11:53:39.725Z,2514.38
2018-08-28T11:54:39.773Z,2576.25
2018-08-28T11:55:39.825Z,2553.75
2018-08-28T11:56:39.878Z,2626.88
2018-08-28T11:57:39.931Z,2604.38
2018-08-28T11:58:39.985Z,2565.00
2018-08-28T11:59:40.037Z,2587.50
2018-08-28T12:00:40.091Z,2525.63
2018-08-28T12:01:40.145Z,2570.63
2018-08-28T12:02:40.198Z,2581.88
2018-08-28T12:03:40.251Z,2615.63
2018-08-28T12:04:40.304Z,2615.63
2018-08-28T12:05:40.359Z,2598.75
2018-08-28T12:06:40.440Z,2683.13
2018-08-28T12:07:40.540Z,2728.13
2018-08-28T12:08:40.519Z,2660.63
2018-08-28T12:09:40.571Z,2570.63
2018-08-28T12:10:40.626Z,2548.13
2018-08-28T12:11:40.681Z,2610.00
2018-08-28T12:12:40.732Z,2700.00
2018-08-28T12:13:40.787Z,2660.63
2018-08-28T12:14:40.841Z,2581.88
2018-08-28T12:15:40.893Z,2491.88
2018-08-28T12:17:41.006Z,2570.63
2018-08-28T12:18:41.077Z,2565.00
2018-08-28T12:21:41.443Z,2520.00
2018-08-28T12:23:41.323Z,2525.63
2018-08-28T12:24:41.705Z,2581.88
2018-08-28T12:25:41.436Z,2570.63
2018-08-28T12:26:41.518Z,2570.63
2018-08-28T12:27:41.539Z,2283.75
2018-08-28T12:28:41.593Z,2041.88
2018-08-28T12:29:41.688Z,2199.38
2018-08-28T12:30:41.701Z,2542.50
2018-08-28T12:31:41.770Z,2610.00
2018-08-28T12:32:41.809Z,2525.63
2018-08-28T12:33:41.862Z,2463.75
2018-08-28T12:34:41.920Z,2486.25
2018-08-28T12:35:41.969Z,2553.75
2018-08-28T12:36:42.070Z,2497.50
2018-08-28T12:37:42.080Z,2548.13
2018-08-28T12:38:42.134Z,2536.88
2018-08-28T12:39:42.187Z,2486.25
2018-08-28T12:40:42.242Z,2514.38
2018-08-28T12:41:42.296Z,2458.13
2018-08-28T12:42:42.351Z,2463.75
2018-08-28T12:43:42.404Z,2503.13
2018-08-28T12:44:42.471Z,2570.63
2018-08-28T12:45:42.513Z,2604.38
2018-08-28T12:46:42.568Z,2593.13
2018-08-28T12:47:42.622Z,2491.88